createdAt,value
2022-09-07T00:00:29.609Z,20.18
2022-09-07T00:01:29.605Z,20.18
2022-09-07T00:02:29.634Z,20.17
2022-09-07T00:03:29.598Z,20.16
2022-09-07T00:04:29.625Z,20.15
2022-09-07T00:05:29.540Z,20.14
2022-09-07T00:06:29.538Z,20.12
2022-09-07T00:07:29.514Z,20.11
2022-09-07T00:08:29.587Z,20.09
2022-09-07T00:09:29.490Z,20.06
2022-09-07T00:10:29.491Z,20.03
2022-09-07T00:11:29.460Z,20.00
2022-09-07T00:12:29.470Z,19.96
2022-09-07T00:13:29.442Z,19.92
2022-09-07T00:14:29.433Z,19.86
2022-09-07T00:15:29.410Z,19.78
2022-09-07T00:16:29.517Z,19.69
2022-09-07T00:17:29.382Z,19.60
2022-09-07T00:18:29.566Z,19.51
2022-09-07T00:19:29.350Z,19.43
2022-09-07T00:20:29.345Z,19.37
2022-09-07T00:21:29.350Z,19.33
2022-09-07T00:22:29.321Z,19.30
2022-09-07T00:23:29.305Z,19.29
2022-09-07T00:24:29.293Z,19.29
2022-09-07T00:25:31.957Z,19.29
2022-09-07T00:26:29.273Z,19.29
2022-09-07T00:27:29.265Z,19.30
2022-09-07T00:28:29.242Z,19.30
2022-09-07T00:29:29.222Z,19.31
2022-09-07T00:30:29.227Z,19.33
2022-09-07T00:31:29.272Z,19.34
2022-09-07T00:32:29.190Z,19.37
2022-09-07T00:33:29.177Z,19.40
2022-09-07T00:34:29.174Z,19.43
2022-09-07T00:35:29.147Z,19.46
2022-09-07T00:36:29.137Z,19.48
2022-09-07T00:37:29.129Z,19.49
2022-09-07T00:38:29.240Z,19.50
2022-09-07T00:39:29.128Z,19.51
2022-09-07T00:40:29.084Z,19.51
2022-09-07T00:41:29.069Z,19.52
2022-09-07T00:42:29.060Z,19.53
2022-09-07T00:43:29.058Z,19.55
2022-09-07T00:44:29.028Z,19.57
2022-09-07T00:45:29.036Z,19.59
2022-09-07T00:46:29.074Z,19.61
2022-09-07T00:47:28.989Z,19.63
2022-09-07T00:48:28.988Z,19.66
2022-09-07T00:49:28.963Z,19.68
2022-09-07T00:50:28.949Z,19.71
2022-09-07T00:51:28.942Z,19.72
2022-09-07T00:52:28.925Z,19.74
2022-09-07T00:53:28.929Z,19.73
2022-09-07T00:54:28.903Z,19.71
2022-09-07T00:55:28.885Z,19.67
2022-09-07T00:56:28.873Z,19.62
2022-09-07T00:57:28.856Z,19.56
2022-09-07T00:58:28.928Z,19.51
2022-09-07T00:59:28.835Z,19.45
2022-09-07T01:00:28.834Z,19.41
2022-09-07T01:01:28.888Z,19.37
2022-09-07T01:02:28.903Z,19.34
2022-09-07T01:03:28.785Z,19.31
2022-09-07T01:04:28.778Z,19.30
2022-09-07T01:05:28.759Z,19.27
2022-09-07T01:06:28.765Z,19.25
2022-09-07T01:07:28.737Z,19.24
2022-09-07T01:08:28.785Z,19.22
2022-09-07T01:09:28.714Z,19.19
2022-09-07T01:10:28.684Z,19.17
2022-09-07T01:11:28.683Z,19.14
2022-09-07T01:12:28.680Z,19.11
2022-09-07T01:13:28.650Z,19.08
2022-09-07T01:14:28.631Z,19.06
2022-09-07T01:15:28.649Z,19.03
2022-09-07T01:16:28.670Z,19.01
2022-09-07T01:17:28.596Z,18.99
2022-09-07T01:18:28.691Z,18.98
2022-09-07T01:19:28.568Z,18.97
2022-09-07T01:20:28.561Z,18.97
2022-09-07T01:21:28.549Z,18.97
2022-09-07T01:22:28.525Z,18.97
2022-09-07T01:23:28.529Z,18.97
2022-09-07T01:24:28.532Z,18.98
2022-09-07T01:25:28.491Z,18.98
2022-09-07T01:26:28.475Z,18.99
2022-09-07T01:27:28.759Z,18.99
2022-09-07T01:28:28.479Z,19.00
2022-09-07T01:29:28.435Z,19.01
2022-09-07T01:30:28.434Z,19.02
2022-09-07T01:31:28.487Z,19.04
2022-09-07T01:32:28.397Z,19.04
2022-09-07T01:33:28.398Z,19.05
2022-09-07T01:34:28.368Z,19.06
2022-09-07T01:35:28.358Z,19.07
2022-09-07T01:36:28.341Z,19.06
2022-09-07T01:37:28.339Z,19.05
2022-09-07T01:38:28.374Z,19.03
2022-09-07T01:39:28.384Z,19.02
2022-09-07T01:40:28.284Z,19.02
2022-09-07T01:41:28.281Z,19.03
2022-09-07T01:42:28.264Z,19.04
2022-09-07T01:43:28.255Z,19.05
2022-09-07T01:44:28.265Z,19.07
2022-09-07T01:45:28.223Z,19.09
2022-09-07T01:46:28.244Z,19.11
2022-09-07T01:47:28.198Z,19.13
2022-09-07T01:48:28.287Z,19.15
2022-09-07T01:49:28.200Z,19.17
2022-09-07T01:50:28.162Z,19.18
2022-09-07T01:51:28.144Z,19.19
2022-09-07T01:52:28.130Z,19.19
2022-09-07T01:53:28.169Z,19.18
2022-09-07T01:54:28.111Z,19.18
2022-09-07T01:55:28.103Z,19.17
2022-09-07T01:56:28.081Z,19.16
2022-09-07T01:57:28.067Z,19.12
2022-09-07T01:58:28.069Z,19.06
2022-09-07T01:59:28.043Z,18.95
2022-09-07T02:00:28.032Z,18.81
2022-09-07T02:01:28.079Z,18.68
2022-09-07T02:02:30.962Z,18.57
2022-09-07T02:03:31.318Z,18.49
2022-09-07T02:04:28.001Z,18.44
2022-09-07T02:05:27.992Z,18.42
2022-09-07T02:06:27.953Z,18.42
2022-09-07T02:07:27.971Z,18.43
2022-09-07T02:08:27.919Z,18.44
2022-09-07T02:09:27.947Z,18.45
2022-09-07T02:10:27.903Z,18.46
2022-09-07T02:11:27.896Z,18.48
2022-09-07T02:12:27.884Z,18.50
2022-09-07T02:13:27.867Z,18.53
2022-09-07T02:14:27.835Z,18.55
2022-09-07T02:15:27.916Z,18.56
2022-09-07T02:16:27.823Z,18.56
2022-09-07T02:17:27.807Z,18.55
2022-09-07T02:18:28.616Z,18.54
2022-09-07T02:19:27.788Z,18.53
2022-09-07T02:20:27.759Z,18.52
2022-09-07T02:21:27.762Z,18.50
2022-09-07T02:22:27.731Z,18.49
2022-09-07T02:23:27.723Z,18.47
2022-09-07T02:24:27.715Z,18.45
2022-09-07T02:25:27.725Z,18.42
2022-09-07T02:26:27.678Z,18.40
2022-09-07T02:27:27.676Z,18.37
2022-09-07T02:28:27.729Z,18.34
2022-09-07T02:29:30.871Z,18.31
2022-09-07T02:30:27.625Z,18.28
2022-09-07T02:31:27.672Z,18.26
2022-09-07T02:32:27.596Z,18.25
2022-09-07T02:33:27.589Z,18.25
2022-09-07T02:34:27.581Z,18.26
2022-09-07T02:35:27.560Z,18.27
2022-09-07T02:36:27.562Z,18.27
2022-09-07T02:37:27.546Z,18.28
2022-09-07T02:38:27.564Z,18.30
2022-09-07T02:39:27.556Z,18.32
2022-09-07T02:40:27.513Z,18.34
2022-09-07T02:41:27.483Z,18.38
2022-09-07T02:42:27.472Z,18.41
2022-09-07T02:43:27.456Z,18.45
2022-09-07T02:44:27.441Z,18.49
2022-09-07T02:45:27.426Z,18.53
2022-09-07T02:46:27.535Z,18.57
2022-09-07T02:47:27.418Z,18.61
2022-09-07T02:48:27.447Z,18.65
2022-09-07T02:49:27.377Z,18.69
2022-09-07T02:50:27.359Z,18.73
2022-09-07T02:51:27.343Z,18.77
2022-09-07T02:52:27.328Z,18.80
2022-09-07T02:53:27.321Z,18.83
2022-09-07T02:54:27.304Z,18.86
2022-09-07T02:55:27.303Z,18.87
2022-09-07T02:56:27.275Z,18.88
2022-09-07T02:57:27.291Z,18.88
2022-09-07T02:58:27.328Z,18.89
2022-09-07T02:59:27.239Z,18.90
2022-09-07T03:00:27.250Z,18.91
2022-09-07T03:01:27.282Z,18.92
2022-09-07T03:02:27.236Z,18.94
2022-09-07T03:03:27.184Z,18.95
2022-09-07T03:04:27.168Z,18.96
2022-09-07T03:05:27.155Z,18.97
2022-09-07T03:06:27.143Z,18.98
2022-09-07T03:07:27.154Z,18.99
2022-09-07T03:08:27.160Z,19.00
2022-09-07T03:09:27.114Z,19.01
2022-09-07T03:10:27.088Z,19.02
2022-09-07T03:11:27.071Z,19.03
2022-09-07T03:12:27.065Z,19.04
2022-09-07T03:13:27.047Z,19.05
2022-09-07T03:14:27.048Z,19.05
2022-09-07T03:15:27.045Z,19.06
2022-09-07T03:16:27.005Z,19.07
2022-09-07T03:17:27.012Z,19.07
2022-09-07T03:18:27.025Z,19.07
2022-09-07T03:19:26.963Z,19.06
2022-09-07T03:20:26.962Z,19.03
2022-09-07T03:21:26.936Z,18.98
2022-09-07T03:22:26.920Z,18.91
2022-09-07T03:23:26.936Z,18.82
2022-09-07T03:24:26.891Z,18.74
2022-09-07T03:25:33.420Z,18.66
2022-09-07T03:26:27.048Z,18.60
2022-09-07T03:27:27.468Z,18.54
2022-09-07T03:28:26.849Z,18.47
2022-09-07T03:29:26.886Z,18.41
2022-09-07T03:30:26.820Z,18.37
2022-09-07T03:31:26.837Z,18.33
2022-09-07T03:32:26.800Z,18.31
2022-09-07T03:33:26.777Z,18.29
2022-09-07T03:34:26.756Z,18.28
2022-09-07T03:35:26.765Z,18.28
2022-09-07T03:36:26.849Z,18.28
2022-09-07T03:37:26.778Z,18.29
2022-09-07T03:38:26.751Z,18.30
2022-09-07T03:39:26.766Z,18.31
2022-09-07T03:40:26.695Z,18.33
2022-09-07T03:41:26.681Z,18.35
2022-09-07T03:42:26.656Z,18.38
2022-09-07T03:43:26.643Z,18.40
2022-09-07T03:44:26.630Z,18.42
2022-09-07T03:45:26.637Z,18.44
2022-09-07T03:46:26.806Z,18.45
2022-09-07T03:47:26.609Z,18.46
2022-09-07T03:48:26.658Z,18.47
2022-09-07T03:49:26.557Z,18.48
2022-09-07T03:50:26.562Z,18.49
2022-09-07T03:51:26.540Z,18.51
2022-09-07T03:52:26.540Z,18.53
2022-09-07T03:53:26.515Z,18.56
2022-09-07T03:54:26.517Z,18.58
2022-09-07T03:55:26.476Z,18.61
2022-09-07T03:56:26.468Z,18.64
2022-09-07T03:57:26.481Z,18.66
2022-09-07T03:58:26.442Z,18.68
2022-09-07T03:59:26.423Z,18.70
2022-09-07T04:00:26.422Z,18.72
2022-09-07T04:01:26.484Z,18.74
2022-09-07T04:02:26.446Z,18.75
2022-09-07T04:03:26.374Z,18.76
2022-09-07T04:04:26.356Z,18.77
2022-09-07T04:05:26.351Z,18.77
2022-09-07T04:06:26.330Z,18.78
2022-09-07T04:07:26.340Z,18.78
2022-09-07T04:08:26.304Z,18.79
2022-09-07T04:09:26.312Z,18.80
2022-09-07T04:10:26.285Z,18.81
2022-09-07T04:11:26.272Z,18.81
2022-09-07T04:12:26.253Z,18.82
2022-09-07T04:13:26.243Z,18.83
2022-09-07T04:14:26.228Z,18.84
2022-09-07T04:15:26.207Z,18.85
2022-09-07T04:16:26.266Z,18.86
2022-09-07T04:17:26.180Z,18.87
2022-09-07T04:18:26.162Z,18.88
2022-09-07T04:19:26.159Z,18.88
2022-09-07T04:20:26.146Z,18.88
2022-09-07T04:21:26.140Z,18.88
2022-09-07T04:22:26.129Z,18.88
2022-09-07T04:23:26.097Z,18.87
2022-09-07T04:24:26.081Z,18.86
2022-09-07T04:25:26.074Z,18.85
2022-09-07T04:26:26.054Z,18.85
2022-09-07T04:27:26.070Z,18.84
2022-09-07T04:28:26.076Z,18.83
2022-09-07T04:29:26.032Z,18.82
2022-09-07T04:30:26.006Z,18.81
2022-09-07T04:31:26.044Z,18.80
2022-09-07T04:32:26.000Z,18.77
2022-09-07T04:33:25.984Z,18.76
2022-09-07T04:34:25.959Z,18.74
2022-09-07T04:35:25.935Z,18.71
2022-09-07T04:36:25.920Z,18.69
2022-09-07T04:37:25.920Z,18.67
2022-09-07T04:38:26.008Z,18.65
2022-09-07T04:39:25.917Z,18.64
2022-09-07T04:40:25.886Z,18.63
2022-09-07T04:41:25.858Z,18.63
2022-09-07T04:42:25.844Z,18.62
2022-09-07T04:43:25.865Z,18.62
2022-09-07T04:44:25.843Z,18.63
2022-09-07T04:45:25.806Z,18.63
2022-09-07T04:46:25.830Z,18.63
2022-09-07T04:47:25.774Z,18.63
2022-09-07T04:48:25.987Z,18.64
2022-09-07T04:49:25.765Z,18.65
2022-09-07T04:50:25.748Z,18.66
2022-09-07T04:51:25.760Z,18.67
2022-09-07T04:52:25.719Z,18.68
2022-09-07T04:53:25.718Z,18.69
2022-09-07T04:54:25.701Z,18.71
2022-09-07T04:55:25.670Z,18.73
2022-09-07T04:56:25.666Z,18.74
2022-09-07T04:57:25.649Z,18.75
2022-09-07T04:58:25.680Z,18.76
2022-09-07T04:59:25.628Z,18.76
2022-09-07T05:00:25.607Z,18.77
2022-09-07T05:01:25.643Z,18.77
2022-09-07T05:02:25.634Z,18.78
2022-09-07T05:03:25.567Z,18.77
2022-09-07T05:04:25.553Z,18.76
2022-09-07T05:05:25.540Z,18.74
2022-09-07T05:06:25.517Z,18.71
2022-09-07T05:07:25.576Z,18.67
2022-09-07T05:08:25.495Z,18.64
2022-09-07T05:09:25.516Z,18.60
2022-09-07T05:10:25.466Z,18.56
2022-09-07T05:11:29.126Z,18.52
2022-09-07T05:12:25.451Z,18.50
2022-09-07T05:13:25.430Z,18.50
2022-09-07T05:14:25.432Z,18.49
2022-09-07T05:15:25.421Z,18.49
2022-09-07T05:16:25.461Z,18.49
2022-09-07T05:17:25.378Z,18.49
2022-09-07T05:18:25.380Z,18.50
2022-09-07T05:19:25.352Z,18.50
2022-09-07T05:20:25.337Z,18.50
2022-09-07T05:21:25.330Z,18.49
2022-09-07T05:22:25.316Z,18.49
2022-09-07T05:23:25.308Z,18.49
2022-09-07T05:24:25.285Z,18.50
2022-09-07T05:25:25.270Z,18.51
2022-09-07T05:26:25.288Z,18.53
2022-09-07T05:27:25.246Z,18.54
2022-09-07T05:28:25.231Z,18.55
2022-09-07T05:31:25.219Z,18.54
2022-09-07T05:32:25.185Z,18.53
2022-09-07T05:34:31.312Z,18.50
2022-09-07T05:35:25.156Z,18.48
2022-09-07T05:36:25.126Z,18.46
2022-09-07T05:37:25.115Z,18.45
2022-09-07T05:38:25.145Z,18.43
2022-09-07T05:39:25.089Z,18.43
2022-09-07T05:40:25.074Z,18.43
2022-09-07T05:41:25.087Z,18.44
2022-09-07T05:42:25.044Z,18.46
2022-09-07T05:43:25.035Z,18.48
2022-09-07T05:45:25.028Z,18.53
2022-09-07T05:46:24.992Z,18.56
2022-09-07T05:47:24.987Z,18.59
2022-09-07T05:48:24.997Z,18.62
2022-09-07T05:49:24.947Z,18.65
2022-09-07T05:50:24.999Z,18.67
2022-09-07T05:51:24.966Z,18.69
2022-09-07T05:52:24.920Z,18.71
2022-09-07T05:53:24.905Z,18.74
2022-09-07T05:54:24.885Z,18.75
2022-09-07T05:55:31.931Z,18.71
2022-09-07T05:56:24.879Z,18.64
2022-09-07T05:57:24.877Z,18.54
2022-09-07T05:58:24.925Z,18.44
2022-09-07T05:59:24.815Z,18.36
2022-09-07T06:00:24.809Z,18.31
2022-09-07T06:01:24.803Z,18.28
2022-09-07T06:02:24.891Z,18.27
2022-09-07T06:03:24.819Z,18.25
2022-09-07T06:04:24.761Z,18.24
2022-09-07T06:05:24.757Z,18.24
2022-09-07T06:06:24.749Z,18.25
2022-09-07T06:07:24.716Z,18.28
2022-09-07T06:08:24.725Z,18.30
2022-09-07T06:09:28.507Z,18.34
2022-09-07T06:11:24.684Z,18.40
2022-09-07T06:12:24.645Z,18.43
2022-09-07T06:13:24.661Z,18.46
2022-09-07T06:14:24.626Z,18.48
2022-09-07T06:15:24.647Z,18.51
2022-09-07T06:16:24.664Z,18.54
2022-09-07T06:17:24.574Z,18.56
2022-09-07T06:18:24.584Z,18.58
2022-09-07T06:19:24.553Z,18.59
2022-09-07T06:20:24.565Z,18.61
2022-09-07T06:21:24.535Z,18.62
2022-09-07T06:22:27.738Z,18.63
2022-09-07T06:23:24.509Z,18.64
2022-09-07T06:24:24.486Z,18.65
2022-09-07T06:25:24.508Z,18.66
2022-09-07T06:26:24.475Z,18.67
2022-09-07T06:27:24.444Z,18.68
2022-09-07T06:28:24.447Z,18.67
2022-09-07T06:29:24.413Z,18.66
2022-09-07T06:30:24.409Z,18.65
2022-09-07T06:31:24.490Z,18.65
2022-09-07T06:33:24.374Z,18.65
2022-09-07T06:34:24.396Z,18.65
2022-09-07T06:35:24.338Z,18.67
2022-09-07T06:36:24.325Z,18.68
2022-09-07T06:37:24.310Z,18.69
2022-09-07T06:38:26.780Z,18.70
2022-09-07T06:39:24.291Z,18.70
2022-09-07T06:40:24.274Z,18.70
2022-09-07T06:42:24.253Z,18.70
2022-09-07T06:43:24.244Z,18.70
2022-09-07T06:44:24.230Z,18.70
2022-09-07T06:45:24.305Z,18.70
2022-09-07T06:47:24.204Z,18.73
2022-09-07T06:48:24.170Z,18.75
2022-09-07T06:49:24.143Z,18.77
2022-09-07T06:50:24.138Z,18.80
2022-09-07T06:51:24.123Z,18.82
2022-09-07T06:52:24.238Z,18.84
2022-09-07T06:55:24.077Z,18.89
2022-09-07T06:56:24.075Z,18.91
2022-09-07T06:57:24.041Z,18.92
2022-09-07T06:58:24.028Z,18.93
2022-09-07T06:59:24.011Z,18.94
2022-09-07T07:00:24.207Z,18.95
2022-09-07T07:01:24.039Z,18.96
2022-09-07T07:02:24.001Z,18.96
2022-09-07T07:03:24.013Z,18.96
2022-09-07T07:04:23.946Z,18.95
2022-09-07T07:05:23.952Z,18.95
2022-09-07T07:06:23.930Z,18.94
2022-09-07T07:07:23.953Z,18.95
2022-09-07T07:08:23.909Z,18.95
2022-09-07T07:09:23.878Z,18.96
2022-09-07T07:10:25.091Z,18.97
2022-09-07T07:11:23.845Z,18.98
2022-09-07T07:12:55.279Z,20.09
2022-09-07T07:13:56.281Z,19.65
2022-09-07T07:14:56.264Z,19.35
2022-09-07T07:15:56.259Z,19.18
2022-09-07T07:16:56.224Z,19.09
2022-09-07T07:18:00.583Z,19.04
2022-09-07T07:18:56.200Z,19.02
2022-09-07T07:19:56.220Z,19.02
2022-09-07T07:20:56.176Z,19.02
2022-09-07T07:22:56.228Z,19.03
2022-09-07T07:23:56.132Z,19.04
2022-09-07T07:24:56.135Z,19.04
2022-09-07T07:25:56.142Z,19.06
2022-09-07T07:26:56.122Z,19.08
2022-09-07T07:27:56.840Z,19.10
2022-09-07T07:29:56.080Z,19.15
2022-09-07T07:30:56.043Z,19.18
2022-09-07T07:31:56.026Z,19.22
2022-09-07T07:32:56.051Z,19.26
2022-09-07T07:33:56.096Z,19.30
2022-09-07T07:34:55.995Z,19.34
2022-09-07T07:35:55.986Z,19.38
2022-09-07T07:36:55.958Z,19.43
2022-09-07T07:39:01.332Z,19.52
2022-09-07T07:41:58.646Z,19.64
2022-09-07T07:42:55.907Z,19.68
2022-09-07T07:43:55.868Z,19.72
2022-09-07T07:45:55.918Z,19.78
2022-09-07T07:46:55.839Z,19.81
2022-09-07T07:47:55.816Z,19.82
2022-09-07T07:48:55.799Z,19.83
2022-09-07T07:50:30.846Z,19.85
2022-09-07T07:50:55.795Z,19.87
2022-09-07T07:53:56.085Z,19.93
2022-09-07T07:54:55.729Z,19.95
2022-09-07T07:55:55.712Z,19.97
2022-09-07T07:56:55.690Z,19.99
2022-09-07T07:57:55.700Z,20.02
2022-09-07T07:58:55.734Z,20.05
2022-09-07T07:59:55.670Z,20.08
2022-09-07T08:00:56.543Z,20.10
2022-09-07T08:01:55.737Z,20.12
2022-09-07T08:02:55.643Z,20.14
2022-09-07T08:03:55.605Z,20.16
2022-09-07T08:04:55.606Z,20.18
2022-09-07T08:05:55.580Z,20.20
2022-09-07T08:06:55.567Z,20.21
2022-09-07T08:07:55.572Z,20.23
2022-09-07T08:08:55.541Z,20.24
2022-09-07T08:09:55.537Z,20.26
2022-09-07T08:10:55.533Z,20.26
2022-09-07T08:11:55.504Z,20.27
2022-09-07T08:12:55.495Z,20.27
2022-09-07T08:13:55.481Z,20.27
2022-09-07T08:14:55.479Z,20.27
2022-09-07T08:15:55.488Z,20.28
2022-09-07T08:16:55.452Z,20.28
2022-09-07T08:17:55.443Z,20.28
2022-09-07T08:18:55.407Z,20.28
2022-09-07T08:19:55.408Z,20.28
2022-09-07T08:20:55.398Z,20.29
2022-09-07T08:21:55.386Z,20.30
2022-09-07T08:22:55.377Z,20.32
2022-09-07T08:23:55.354Z,20.33
2022-09-07T08:24:55.337Z,20.35
2022-09-07T08:25:55.330Z,20.36
2022-09-07T08:26:55.328Z,20.38
2022-09-07T08:27:55.308Z,20.40
2022-09-07T08:28:55.325Z,20.43
2022-09-07T08:29:55.284Z,20.45
2022-09-07T08:30:55.255Z,20.47
2022-09-07T08:31:55.276Z,20.49
2022-09-07T08:32:55.254Z,20.52
2022-09-07T08:33:55.275Z,20.55
2022-09-07T08:34:55.221Z,20.58
2022-09-07T08:35:55.193Z,20.60
2022-09-07T08:36:55.177Z,20.62
2022-09-07T08:37:55.175Z,20.64
2022-09-07T08:38:55.152Z,20.66
2022-09-07T08:39:55.192Z,20.67
2022-09-07T08:40:55.126Z,20.69
2022-09-07T08:41:55.119Z,20.71
2022-09-07T08:42:55.100Z,20.72
2022-09-07T08:43:55.126Z,20.74
2022-09-07T08:44:55.085Z,20.76
2022-09-07T08:45:55.064Z,20.79
2022-09-07T08:46:55.120Z,20.81
2022-09-07T08:47:55.064Z,20.83
2022-09-07T08:48:55.036Z,20.85
2022-09-07T08:49:55.010Z,20.87
2022-09-07T08:50:55.031Z,20.90
2022-09-07T08:51:54.987Z,20.92
2022-09-07T08:52:54.980Z,20.95
2022-09-07T08:53:54.984Z,20.97
2022-09-07T08:54:54.950Z,20.99
2022-09-07T08:55:54.943Z,21.01
2022-09-07T08:57:54.913Z,21.05
2022-09-07T08:58:54.906Z,21.07
2022-09-07T08:59:54.887Z,21.10
2022-09-07T09:01:30.762Z,21.13
2022-09-07T09:05:54.937Z,21.35
2022-09-07T09:06:54.914Z,21.40
2022-09-07T09:07:54.780Z,21.45
2022-09-07T09:08:54.780Z,21.49
2022-09-07T09:09:54.779Z,21.52
2022-09-07T09:10:54.741Z,21.55
2022-09-07T09:11:54.750Z,21.58
2022-09-07T09:12:54.723Z,21.60
2022-09-07T09:13:54.755Z,21.62
2022-09-07T09:14:54.711Z,21.63
2022-09-07T09:15:54.800Z,21.65
2022-09-07T09:16:54.664Z,21.67
2022-09-07T09:17:54.655Z,21.70
2022-09-07T09:18:54.653Z,21.75
2022-09-07T09:19:54.623Z,21.79
2022-09-07T09:20:54.634Z,21.85
2022-09-07T09:21:54.604Z,21.91
2022-09-07T09:22:54.586Z,21.96
2022-09-07T09:23:54.573Z,22.01
2022-09-07T09:24:54.565Z,22.06
2022-09-07T09:25:54.555Z,22.11
2022-09-07T09:27:00.563Z,22.16
2022-09-07T09:27:54.551Z,22.21
2022-09-07T09:28:54.557Z,22.24
2022-09-07T09:29:54.499Z,22.27
2022-09-07T09:30:54.557Z,22.30
2022-09-07T09:31:54.478Z,22.33
2022-09-07T09:32:54.468Z,22.36
2022-09-07T09:33:54.454Z,22.40
2022-09-07T09:34:54.446Z,22.45
2022-09-07T09:35:54.421Z,22.52
2022-09-07T09:36:54.454Z,22.58
2022-09-07T09:37:54.402Z,22.64
2022-09-07T09:38:54.386Z,22.69
2022-09-07T09:39:56.163Z,22.73
2022-09-07T09:40:54.360Z,22.76
2022-09-07T09:41:54.370Z,22.80
2022-09-07T09:42:54.352Z,22.84
2022-09-07T09:43:54.318Z,22.88
2022-09-07T09:44:54.305Z,22.91
2022-09-07T09:47:54.781Z,23.01
2022-09-07T09:48:54.260Z,23.04
2022-09-07T09:49:54.273Z,23.08
2022-09-07T09:52:54.223Z,23.22
2022-09-07T09:53:54.178Z,23.28
2022-09-07T09:54:55.833Z,23.33
2022-09-07T09:55:54.167Z,23.38
2022-09-07T09:56:54.191Z,23.42
2022-09-07T09:59:57.095Z,23.46
2022-09-07T10:03:58.320Z,23.30
2022-09-07T10:04:54.057Z,23.26
2022-09-07T10:05:54.034Z,23.21
2022-09-07T10:06:54.040Z,23.17
2022-09-07T10:07:54.008Z,23.12
2022-09-07T10:08:54.035Z,23.08
2022-09-07T10:09:54.002Z,23.03
2022-09-07T10:10:53.970Z,22.99
2022-09-07T10:12:09.303Z,22.96
2022-09-07T10:12:53.962Z,22.93
2022-09-07T10:13:54.014Z,22.89
2022-09-07T10:14:53.924Z,22.84
2022-09-07T10:15:54.063Z,22.80
2022-09-07T10:16:53.902Z,22.76
2022-09-07T10:17:53.875Z,22.73
2022-09-07T10:18:53.865Z,22.69
2022-09-07T10:19:53.853Z,22.66
2022-09-07T10:20:53.856Z,22.62
2022-09-07T10:21:53.826Z,22.59
2022-09-07T10:22:53.821Z,22.57
2022-09-07T10:23:53.801Z,22.54
2022-09-07T10:24:53.787Z,22.52
2022-09-07T10:25:53.783Z,22.51
2022-09-07T10:26:53.768Z,22.51
2022-09-07T10:27:53.767Z,22.51
2022-09-07T10:29:09.748Z,22.51
2022-09-07T10:29:53.731Z,22.51
2022-09-07T10:30:53.777Z,22.52
2022-09-07T10:31:53.692Z,22.54
2022-09-07T10:32:53.683Z,22.56
2022-09-07T10:34:53.676Z,22.60
2022-09-07T10:35:53.656Z,22.62
2022-09-07T10:36:53.641Z,22.65
2022-09-07T10:37:53.621Z,22.68
2022-09-07T10:38:53.655Z,22.71
2022-09-07T10:39:56.971Z,22.75
2022-09-07T10:40:53.592Z,22.78
2022-09-07T10:41:53.603Z,22.81
2022-09-07T10:43:53.545Z,22.86
2022-09-07T10:44:53.575Z,22.88
2022-09-07T10:45:53.551Z,22.89
2022-09-07T10:46:57.158Z,22.91
2022-09-07T10:47:53.509Z,22.91
2022-09-07T10:48:53.488Z,22.92
2022-09-07T10:50:53.474Z,22.91
2022-09-07T10:51:53.440Z,22.90
2022-09-07T10:52:53.438Z,22.89
2022-09-07T10:54:53.414Z,22.89
2022-09-07T10:55:53.386Z,22.88
2022-09-07T10:56:53.392Z,22.88
2022-09-07T10:57:53.370Z,22.87
2022-09-07T10:59:08.641Z,22.88
2022-09-07T11:00:09.574Z,22.89
2022-09-07T11:00:53.334Z,22.89
2022-09-07T11:01:53.376Z,22.90
2022-09-07T11:03:53.348Z,22.91
2022-09-07T11:04:53.289Z,22.92
2022-09-07T11:05:53.252Z,22.92
2022-09-07T11:06:53.279Z,22.93
2022-09-07T11:07:53.251Z,22.94
2022-09-07T11:09:53.229Z,22.94
2022-09-07T11:10:53.200Z,22.94
2022-09-07T11:12:01.081Z,22.95
2022-09-07T11:12:53.184Z,22.95
2022-09-07T11:14:11.842Z,22.95
2022-09-07T11:14:53.162Z,22.94
2022-09-07T11:15:53.203Z,22.94
2022-09-07T11:16:53.225Z,22.93
2022-09-07T11:17:53.449Z,22.93
2022-09-07T11:19:34.182Z,22.93
2022-09-07T11:19:53.107Z,22.93
2022-09-07T11:20:53.064Z,22.94
2022-09-07T11:21:56.560Z,22.96
2022-09-07T11:22:53.039Z,22.99
2022-09-07T11:23:53.041Z,23.01
2022-09-07T11:25:53.025Z,23.06
2022-09-07T11:26:52.993Z,23.08
2022-09-07T11:27:52.976Z,23.09
2022-09-07T11:29:52.968Z,23.11
2022-09-07T11:30:56.606Z,23.12
2022-09-07T11:31:52.943Z,23.12
2022-09-07T11:32:52.915Z,23.12
2022-09-07T11:34:52.953Z,23.13
2022-09-07T11:35:52.893Z,23.15
2022-09-07T11:36:52.878Z,23.16
2022-09-07T11:37:52.879Z,23.17
2022-09-07T11:38:52.836Z,23.18
2022-09-07T11:39:52.939Z,23.19
2022-09-07T11:40:52.830Z,23.20
2022-09-07T11:41:52.799Z,23.23
2022-09-07T11:42:52.792Z,23.27
2022-09-07T11:43:52.810Z,23.31
2022-09-07T11:44:52.839Z,23.34
2022-09-07T11:45:52.788Z,23.37
2022-09-07T11:46:52.740Z,23.40
2022-09-07T11:47:52.731Z,23.43
2022-09-07T11:48:52.709Z,23.44
2022-09-07T11:49:57.212Z,23.46
2022-09-07T11:50:52.712Z,23.49
2022-09-07T11:51:54.073Z,23.52
2022-09-07T11:52:53.942Z,23.55
2022-09-07T11:53:52.646Z,23.58
2022-09-07T11:54:52.723Z,23.60
2022-09-07T11:55:52.647Z,23.62
2022-09-07T11:56:52.604Z,23.65
2022-09-07T11:57:55.603Z,23.67
2022-09-07T11:58:52.638Z,23.69
2022-09-07T11:59:52.575Z,23.71
2022-09-07T12:00:52.556Z,23.74
2022-09-07T12:01:52.542Z,23.79
2022-09-07T12:03:00.732Z,23.86
2022-09-07T12:03:52.629Z,23.93
2022-09-07T12:04:56.178Z,23.98
2022-09-07T12:05:52.496Z,24.03
2022-09-07T12:06:52.476Z,24.07
2022-09-07T12:07:52.463Z,24.11
2022-09-07T12:08:52.456Z,24.16
2022-09-07T12:09:52.441Z,24.19
2022-09-07T12:10:52.444Z,24.23
2022-09-07T12:11:52.437Z,24.27
2022-09-07T12:12:52.405Z,24.33
2022-09-07T12:13:52.418Z,24.38
2022-09-07T12:14:52.440Z,24.44
2022-09-07T12:15:52.467Z,24.49
2022-09-07T12:16:52.359Z,24.53
2022-09-07T12:17:52.349Z,24.56
2022-09-07T12:18:52.334Z,24.59
2022-09-07T12:19:52.309Z,24.61
2022-09-07T12:20:52.309Z,24.63
2022-09-07T12:21:52.323Z,24.65
2022-09-07T12:22:52.289Z,24.66
2022-09-07T12:23:52.280Z,24.67
2022-09-07T12:24:52.307Z,24.69
2022-09-07T12:25:52.241Z,24.71
2022-09-07T12:26:52.228Z,24.75
2022-09-07T12:27:52.212Z,24.79
2022-09-07T12:28:52.214Z,24.83
2022-09-07T12:29:52.180Z,24.87
2022-09-07T12:30:52.262Z,24.92
2022-09-07T12:32:07.622Z,24.97
2022-09-07T12:32:58.558Z,25.02
2022-09-07T12:33:52.145Z,25.06
2022-09-07T12:34:52.226Z,25.08
2022-09-07T12:35:52.122Z,25.11
2022-09-07T12:36:52.102Z,25.16
2022-09-07T12:37:52.119Z,25.21
2022-09-07T12:38:52.100Z,25.26
2022-09-07T12:39:52.129Z,25.29
2022-09-07T12:40:52.062Z,25.34
2022-09-07T12:42:32.029Z,25.39
2022-09-07T12:42:52.028Z,25.44
2022-09-07T12:43:52.035Z,25.47
2022-09-07T12:44:52.001Z,25.51
2022-09-07T12:45:52.104Z,25.54
2022-09-07T12:46:51.981Z,25.56
2022-09-07T12:47:51.958Z,25.58
2022-09-07T12:48:51.939Z,25.60
2022-09-07T12:49:51.932Z,25.61
2022-09-07T12:50:51.940Z,25.64
2022-09-07T12:52:00.228Z,25.68
2022-09-07T12:52:51.905Z,25.72
2022-09-07T12:53:56.953Z,25.75
2022-09-07T12:55:09.967Z,25.79
2022-09-07T12:57:29.014Z,25.84
2022-09-07T12:57:51.839Z,25.86
2022-09-07T12:58:51.827Z,25.87
2022-09-07T12:59:51.802Z,25.89
2022-09-07T13:00:51.784Z,25.92
2022-09-07T13:01:51.837Z,25.94
2022-09-07T13:02:51.770Z,25.96
2022-09-07T13:03:52.319Z,25.99
2022-09-07T13:04:52.809Z,26.04
2022-09-07T13:05:51.723Z,26.11
2022-09-07T13:07:07.101Z,26.17
2022-09-07T13:07:51.699Z,26.22
2022-09-07T13:08:51.697Z,26.26
2022-09-07T13:09:51.673Z,26.30
2022-09-07T13:10:51.667Z,26.34
2022-09-07T13:11:51.649Z,26.36
2022-09-07T13:12:53.182Z,26.39
2022-09-07T13:14:09.549Z,26.42
2022-09-07T13:14:51.776Z,26.44
2022-09-07T13:15:51.639Z,26.47
2022-09-07T13:17:51.596Z,26.57
2022-09-07T13:18:52.443Z,26.63
2022-09-07T13:19:51.555Z,26.67
2022-09-07T13:20:53.587Z,26.72
2022-09-07T13:21:51.513Z,26.76
2022-09-07T13:22:51.509Z,26.79
2022-09-07T13:23:51.486Z,26.81
2022-09-07T13:24:51.656Z,26.82
2022-09-07T13:25:51.481Z,26.82
2022-09-07T13:26:51.532Z,26.81
2022-09-07T13:27:51.524Z,26.79
2022-09-07T13:28:51.422Z,26.76
2022-09-07T13:29:51.413Z,26.74
2022-09-07T13:30:51.435Z,26.73
2022-09-07T13:31:52.792Z,26.72
2022-09-07T13:33:51.386Z,26.69
2022-09-07T13:34:51.358Z,26.67
2022-09-07T13:35:51.362Z,26.64
2022-09-07T13:36:51.342Z,26.62